createdAt,value
2018-05-14T00:01:25.549Z,30.57
2018-05-14T00:03:53.026Z,29.77
2018-05-14T00:06:21.200Z,30.90
2018-05-14T00:08:48.648Z,29.13
2018-05-14T00:11:16.096Z,32.40
2018-05-14T00:13:43.552Z,30.17
2018-05-14T00:16:10.999Z,31.43
2018-05-14T00:18:38.436Z,28.20
2018-05-14T00:21:06.648Z,27.97
2018-05-14T00:23:34.088Z,30.73
2018-05-14T00:26:01.552Z,27.73
2018-05-14T00:28:28.984Z,19.37
2018-05-14T00:30:56.467Z,30.20
2018-05-14T00:33:23.901Z,32.17
2018-05-14T00:35:51.343Z,22.87
2018-05-14T00:38:19.552Z,29.53
2018-05-14T00:40:46.999Z,27.77
2018-05-14T00:43:14.432Z,34.83
2018-05-14T00:45:42.676Z,31.80
2018-05-14T00:48:10.121Z,32.93
2018-05-14T00:50:37.569Z,32.03
2018-05-14T00:53:05.776Z,35.23
2018-05-14T00:55:33.992Z,30.27
2018-05-14T00:58:01.439Z,27.60
2018-05-14T01:00:29.076Z,24.40
2018-05-14T01:02:57.293Z,27.87
2018-05-14T01:05:24.789Z,41.23
2018-05-14T01:07:52.236Z,36.27
2018-05-14T01:10:19.680Z,33.63
2018-05-14T01:12:47.150Z,29.10
2018-05-14T01:15:14.589Z,31.17
2018-05-14T01:17:42.077Z,37.13
2018-05-14T01:20:10.349Z,33.70
2018-05-14T01:22:38.764Z,29.73
2018-05-14T01:25:06.220Z,29.07
2018-05-14T01:27:33.680Z,34.73
2018-05-14T01:30:01.113Z,45.40
2018-05-14T01:32:29.368Z,40.47
2018-05-14T01:34:56.824Z,46.17
2018-05-14T01:37:25.779Z,35.37
2018-05-14T01:39:53.213Z,34.23
2018-05-14T01:42:20.660Z,37.73
2018-05-14T01:44:48.101Z,30.30
2018-05-14T01:47:16.325Z,37.67
2018-05-14T01:49:43.776Z,43.43
2018-05-14T01:52:11.241Z,32.17
2018-05-14T01:54:38.688Z,37.53
2018-05-14T01:57:06.144Z,48.47
2018-05-14T01:59:33.629Z,34.13
2018-05-14T02:02:01.068Z,26.67
2018-05-14T02:04:28.510Z,49.63
2018-05-14T02:06:56.024Z,61.80
2018-05-14T02:09:23.416Z,46.20
2018-05-14T02:11:50.840Z,52.17
2018-05-14T02:14:19.063Z,40.07
2018-05-14T02:16:46.492Z,42.30
2018-05-14T02:19:13.928Z,31.97
2018-05-14T02:21:41.368Z,37.97
2018-05-14T02:24:09.577Z,32.17
2018-05-14T02:26:37.014Z,54.27
2018-05-14T02:29:05.221Z,54.07
2018-05-14T02:31:32.676Z,47.60
2018-05-14T02:34:00.133Z,64.93
2018-05-14T02:36:27.600Z,61.30
2018-05-14T02:38:55.805Z,51.97
2018-05-14T02:41:23.249Z,48.50
2018-05-14T02:43:50.697Z,47.83
2018-05-14T02:46:18.145Z,55.63
2018-05-14T02:48:46.381Z,43.27
2018-05-14T02:51:13.829Z,50.23
2018-05-14T02:53:41.276Z,29.47
2018-05-14T02:56:09.485Z,50.37
2018-05-14T02:58:37.009Z,40.17
2018-05-14T03:01:04.373Z,32.77
2018-05-14T03:03:32.576Z,24.40
2018-05-14T03:06:00.024Z,44.23
2018-05-14T03:08:27.464Z,43.67
2018-05-14T03:10:54.912Z,57.47
2018-05-14T03:13:22.348Z,57.40
2018-05-14T03:15:49.797Z,48.47
2018-05-14T03:18:17.240Z,51.73
2018-05-14T03:20:44.691Z,44.40
2018-05-14T03:23:12.128Z,28.50
2018-05-14T03:25:39.588Z,32.53
2018-05-14T03:28:07.022Z,46.90
2018-05-14T03:30:34.489Z,28.47
2018-05-14T03:33:01.917Z,21.77
2018-05-14T03:35:29.404Z,39.70
2018-05-14T03:37:56.847Z,39.03
2018-05-14T03:40:24.289Z,52.37
2018-05-14T03:42:51.731Z,34.93
2018-05-14T03:45:19.963Z,57.87
2018-05-14T03:47:47.471Z,41.50
2018-05-14T03:50:14.936Z,52.27
2018-05-14T03:52:42.383Z,46.17
2018-05-14T03:55:10.586Z,34.60
2018-05-14T03:57:38.800Z,34.93
2018-05-14T04:00:18.210Z,31.43
2018-05-14T04:02:58.357Z,42.77
2018-05-14T04:05:37.710Z,31.97
2018-05-14T04:08:05.161Z,42.33
2018-05-14T04:10:32.606Z,59.17
2018-05-14T04:13:00.049Z,50.37
2018-05-14T04:15:28.489Z,32.33
2018-05-14T04:17:56.700Z,40.93
2018-05-14T04:20:24.145Z,32.37
2018-05-14T04:22:52.387Z,40.23
2018-05-14T04:25:19.854Z,47.47
2018-05-14T04:27:48.066Z,34.87
2018-05-14T04:30:15.573Z,44.60
2018-05-14T04:32:42.969Z,42.00
2018-05-14T04:35:10.406Z,36.53
2018-05-14T04:37:37.842Z,41.40
2018-05-14T04:40:06.079Z,29.20
2018-05-14T04:42:33.515Z,25.23
2018-05-14T04:45:01.041Z,22.83
2018-05-14T04:47:29.330Z,42.03
2018-05-14T04:49:57.541Z,33.23
2018-05-14T04:52:25.012Z,44.30
2018-05-14T04:54:52.476Z,25.47
2018-05-14T04:57:19.940Z,32.27
2018-05-14T04:59:47.381Z,40.13
2018-05-14T05:02:14.820Z,34.57
2018-05-14T05:04:42.268Z,35.43
2018-05-14T05:07:09.709Z,27.10
2018-05-14T05:09:37.176Z,23.70
2018-05-14T05:12:04.629Z,34.97
2018-05-14T05:14:32.085Z,41.77
2018-05-14T05:16:59.572Z,35.27
2018-05-14T05:19:27.013Z,42.90
2018-05-14T05:21:54.478Z,33.43
2018-05-14T05:24:21.928Z,33.90
2018-05-14T05:26:49.469Z,43.80
2018-05-14T05:29:16.905Z,33.47
2018-05-14T05:31:45.145Z,27.77
2018-05-14T05:34:12.580Z,36.17
2018-05-14T05:36:40.033Z,26.00
2018-05-14T05:39:07.469Z,22.53
2018-05-14T05:41:34.914Z,24.77
2018-05-14T05:44:02.357Z,36.97
2018-05-14T05:46:29.807Z,28.97
2018-05-14T05:48:58.007Z,38.00
2018-05-14T05:51:26.323Z,25.33
2018-05-14T05:53:53.753Z,24.27
2018-05-14T05:56:21.198Z,28.07
2018-05-14T05:58:48.648Z,33.17
2018-05-14T06:01:16.157Z,30.13
2018-05-14T06:03:43.544Z,29.47
2018-05-14T06:06:10.976Z,50.50
2018-05-14T06:08:39.193Z,38.83
2018-05-14T06:11:06.624Z,26.73
2018-05-14T06:13:34.064Z,31.83
2018-05-14T06:16:02.280Z,27.67
2018-05-14T06:18:30.492Z,58.00
2018-05-14T06:20:57.933Z,49.17
2018-05-14T06:23:25.385Z,26.17
2018-05-14T06:25:52.817Z,53.30
2018-05-14T06:28:20.297Z,49.37
2018-05-14T06:30:47.745Z,43.17
2018-05-14T06:33:15.189Z,38.13
2018-05-14T06:35:42.800Z,42.93
2018-05-14T06:38:10.118Z,41.43
2018-05-14T06:40:37.601Z,38.40
2018-05-14T06:43:05.032Z,33.40
2018-05-14T06:45:32.484Z,35.70
2018-05-14T06:47:59.926Z,33.73
2018-05-14T06:50:27.389Z,25.93
2018-05-14T06:52:54.837Z,41.30
2018-05-14T06:55:22.279Z,38.27
2018-05-14T06:57:49.731Z,40.23
2018-05-14T07:00:17.942Z,36.40
2018-05-14T07:02:45.384Z,29.93
2018-05-14T07:05:12.832Z,25.83
2018-05-14T07:07:40.270Z,21.63
2018-05-14T07:10:07.737Z,42.87
2018-05-14T07:12:35.177Z,46.97
2018-05-14T07:15:03.394Z,32.30
2018-05-14T07:17:30.851Z,20.93
2018-05-14T07:19:58.294Z,35.90
2018-05-14T07:22:25.729Z,43.33
2018-05-14T07:24:53.189Z,32.20
2018-05-14T07:27:21.382Z,31.10
2018-05-14T07:29:48.849Z,24.07
2018-05-14T07:32:16.290Z,19.13
2018-05-14T07:34:43.738Z,17.20
2018-05-14T07:37:11.173Z,13.53
2018-05-14T07:39:39.376Z,13.57
2018-05-14T07:42:06.832Z,23.27
2018-05-14T07:44:34.312Z,20.80
2018-05-14T07:47:03.279Z,17.17
2018-05-14T07:49:30.734Z,14.00
2018-05-14T07:51:58.187Z,20.40
2018-05-14T07:54:25.668Z,26.63
2018-05-14T07:56:53.116Z,16.80
2018-05-14T07:59:20.556Z,19.57
2018-05-14T08:01:49.000Z,27.13
2018-05-14T08:04:17.213Z,19.67
2018-05-14T08:06:44.660Z,19.13
2018-05-14T08:09:12.109Z,23.83
2018-05-14T08:11:39.602Z,19.13
2018-05-14T08:14:07.806Z,12.57
2018-05-14T08:16:35.253Z,15.13
2018-05-14T08:19:02.691Z,24.93
2018-05-14T08:21:30.914Z,21.73
2018-05-14T08:23:58.363Z,46.80
2018-05-14T08:26:26.580Z,29.17
2018-05-14T08:28:54.016Z,31.87
2018-05-14T08:31:21.634Z,22.37
2018-05-14T08:33:49.764Z,52.97
2018-05-14T08:36:17.212Z,60.63
2018-05-14T08:38:44.658Z,33.73
2018-05-14T08:41:12.434Z,34.53
2018-05-14T08:43:40.717Z,44.57
2018-05-14T08:46:08.164Z,28.67
2018-05-14T08:48:35.668Z,41.50
2018-05-14T08:51:03.501Z,31.03
2018-05-14T08:53:31.736Z,31.63
2018-05-14T08:56:00.284Z,40.80
2018-05-14T08:58:28.508Z,87.00
2018-05-14T09:00:55.952Z,42.73
2018-05-14T09:03:24.165Z,37.83
2018-05-14T09:05:52.400Z,49.63
2018-05-14T09:08:19.860Z,47.37
2018-05-14T09:10:47.329Z,32.87
2018-05-14T09:13:14.763Z,48.20
2018-05-14T09:15:42.975Z,35.57
2018-05-14T09:18:10.421Z,55.40
2018-05-14T09:20:37.861Z,44.40
2018-05-14T09:23:06.088Z,66.40
2018-05-14T09:25:33.613Z,50.57
2018-05-14T09:28:00.966Z,59.17
2018-05-14T09:30:28.426Z,43.83
2018-05-14T09:32:55.913Z,42.43
2018-05-14T09:35:23.390Z,39.57
2018-05-14T09:37:51.763Z,53.70
2018-05-14T09:40:19.979Z,49.63
2018-05-14T09:42:47.432Z,64.13
2018-05-14T09:45:14.879Z,67.10
2018-05-14T09:47:43.104Z,56.03
2018-05-14T09:50:10.608Z,87.33
2018-05-14T09:52:38.067Z,63.60
2018-05-14T09:55:05.513Z,66.77
2018-05-14T09:57:33.724Z,59.07
2018-05-14T10:00:01.185Z,72.63
2018-05-14T10:02:28.632Z,86.77
2018-05-14T10:04:56.095Z,58.13
2018-05-14T10:07:23.738Z,72.13
2018-05-14T10:09:51.298Z,55.77
2018-05-14T10:12:19.504Z,71.10
2018-05-14T10:14:46.945Z,60.47
2018-05-14T10:17:14.397Z,50.50
2018-05-14T10:19:41.983Z,53.77
2018-05-14T10:22:09.455Z,66.93
2018-05-14T10:24:37.023Z,61.27
2018-05-14T10:27:05.174Z,57.73
2018-05-14T10:29:32.721Z,49.00
2018-05-14T10:32:00.179Z,56.80
2018-05-14T10:34:27.614Z,51.23
2018-05-14T10:36:55.064Z,48.23
2018-05-14T10:39:22.496Z,59.00
2018-05-14T10:41:50.708Z,54.60
2018-05-14T10:44:18.170Z,63.43
2018-05-14T10:46:45.616Z,53.77
2018-05-14T10:49:13.099Z,53.17
2018-05-14T10:51:40.556Z,63.67
2018-05-14T10:54:09.101Z,58.80
2018-05-14T10:56:37.365Z,82.93
2018-05-14T10:59:04.839Z,68.30
2018-05-14T11:01:32.280Z,69.83
2018-05-14T11:04:00.905Z,61.70
2018-05-14T11:06:28.712Z,51.07
2018-05-14T11:08:56.487Z,59.53
2018-05-14T11:11:24.239Z,65.47
2018-05-14T11:13:52.107Z,65.53
2018-05-14T11:16:20.570Z,63.63
2018-05-14T11:18:48.241Z,64.40
2018-05-14T11:21:15.702Z,54.87
2018-05-14T11:23:44.259Z,52.23
2018-05-14T11:26:12.709Z,48.43
2018-05-14T11:28:40.474Z,57.27
2018-05-14T11:31:09.849Z,58.00
2018-05-14T11:33:37.633Z,58.37
2018-05-14T11:36:06.588Z,64.00
2018-05-14T11:38:34.410Z,61.30
2018-05-14T11:41:02.197Z,63.37
2018-05-14T11:43:30.046Z,64.47
2018-05-14T11:45:58.819Z,60.57
2018-05-14T11:48:26.333Z,56.83
2018-05-14T11:50:55.665Z,60.43
2018-05-14T11:53:24.137Z,58.50
2018-05-14T11:55:52.162Z,67.37
2018-05-14T11:58:19.950Z,52.77
2018-05-14T12:00:47.784Z,66.03
2018-05-14T12:03:16.365Z,75.33
2018-05-14T12:05:43.831Z,60.70
2018-05-14T12:08:12.538Z,55.63
2018-05-14T12:10:40.307Z,48.87
2018-05-14T12:13:09.021Z,61.07
2018-05-14T12:15:36.518Z,54.40
2018-05-14T12:18:04.044Z,57.83
2018-05-14T12:20:32.277Z,59.50
2018-05-14T12:22:59.757Z,50.40
2018-05-14T12:25:27.218Z,47.17
2018-05-14T12:27:54.665Z,53.43
2018-05-14T12:30:22.101Z,54.27
2018-05-14T12:32:50.308Z,55.83
2018-05-14T12:35:17.756Z,58.20
2018-05-14T12:37:45.993Z,65.40
2018-05-14T12:40:14.208Z,60.83
2018-05-14T12:42:41.644Z,66.67
2018-05-14T12:45:09.102Z,67.53
2018-05-14T12:47:36.553Z,69.73
2018-05-14T12:50:04.773Z,73.97
2018-05-14T12:52:32.247Z,67.50
2018-05-14T12:55:00.801Z,65.87
2018-05-14T12:57:29.273Z,57.60
2018-05-14T12:59:58.697Z,60.00
2018-05-14T13:02:26.977Z,62.53
2018-05-14T13:04:54.507Z,57.47
2018-05-14T13:07:21.975Z,43.77
2018-05-14T13:09:49.429Z,59.23
2018-05-14T13:12:16.879Z,59.07
2018-05-14T13:14:44.333Z,62.97
2018-05-14T13:17:11.787Z,58.33
2018-05-14T13:19:39.251Z,61.67
2018-05-14T13:22:06.691Z,60.53
2018-05-14T13:24:34.440Z,67.83
2018-05-14T13:27:02.698Z,62.20
2018-05-14T13:29:30.152Z,58.90
2018-05-14T13:31:57.623Z,58.33
2018-05-14T13:34:25.862Z,54.63
2018-05-14T13:36:53.491Z,44.17
2018-05-14T13:39:20.994Z,56.20
2018-05-14T13:41:48.437Z,58.63
2018-05-14T13:44:15.956Z,52.03
2018-05-14T13:46:43.337Z,60.23
2018-05-14T13:49:10.781Z,63.10
2018-05-14T13:51:38.264Z,58.57
2018-05-14T13:54:05.727Z,62.50
2018-05-14T13:56:33.243Z,59.93
2018-05-14T13:59:00.694Z,57.67
2018-05-14T14:01:28.224Z,60.67
2018-05-14T14:03:55.713Z,53.33
2018-05-14T14:06:23.154Z,53.07
2018-05-14T14:08:51.365Z,58.13
2018-05-14T14:11:18.827Z,52.23
2018-05-14T14:13:46.254Z,58.63
2018-05-14T14:16:13.820Z,50.37
2018-05-14T14:18:42.101Z,58.60
2018-05-14T14:21:09.549Z,53.77
2018-05-14T14:23:37.161Z,53.33
2018-05-14T14:26:05.213Z,53.83
2018-05-14T14:28:32.672Z,53.73
2018-05-14T14:31:00.120Z,53.83
2018-05-14T14:33:27.581Z,48.20
2018-05-14T14:35:55.076Z,42.53
2018-05-14T14:38:22.471Z,42.07
2018-05-14T14:40:49.918Z,47.93
2018-05-14T14:43:17.361Z,49.17
2018-05-14T14:45:45.599Z,51.57
2018-05-14T14:48:13.072Z,49.03
2018-05-14T14:50:40.520Z,48.80
2018-05-14T14:53:08.243Z,47.43
2018-05-14T14:55:35.735Z,45.83
2018-05-14T14:58:03.229Z,47.87
2018-05-14T15:00:31.477Z,45.00
2018-05-14T15:02:58.928Z,45.07
2018-05-14T15:05:26.395Z,43.63
2018-05-14T15:07:53.882Z,38.97
2018-05-14T15:10:21.348Z,32.23
2018-05-14T15:12:48.776Z,40.43
2018-05-14T15:15:16.992Z,48.17
2018-05-14T15:17:44.438Z,45.47
2018-05-14T15:20:11.929Z,40.13
2018-05-14T15:22:40.084Z,39.93
2018-05-14T15:25:07.546Z,33.23
2018-05-14T15:27:34.986Z,39.03
2018-05-14T15:30:02.444Z,38.17
2018-05-14T15:32:29.925Z,39.70
2018-05-14T15:34:57.400Z,41.00
2018-05-14T15:37:24.848Z,36.73
2018-05-14T15:39:52.425Z,36.83
2018-05-14T15:42:19.886Z,38.83
2018-05-14T15:44:47.364Z,39.03
2018-05-14T15:47:14.931Z,34.27
2018-05-14T15:49:42.435Z,35.33
2018-05-14T15:52:09.887Z,35.97
2018-05-14T15:54:37.320Z,32.80
2018-05-14T15:57:04.781Z,26.73
2018-05-14T15:59:32.372Z,22.27
2018-05-14T16:02:00.686Z,18.83
2018-05-14T16:04:28.169Z,16.13
2018-05-14T16:06:55.891Z,14.53
2018-05-14T16:09:23.457Z,16.03
2018-05-14T16:11:50.905Z,13.10
2018-05-14T16:14:18.352Z,12.13
2018-05-14T16:16:45.802Z,12.97
2018-05-14T16:19:13.244Z,14.47
2018-05-14T16:21:41.387Z,11.03
2018-05-14T16:24:08.860Z,10.20
2018-05-14T16:26:36.336Z,9.83
2018-05-14T16:29:03.743Z,7.87
2018-05-14T16:31:31.953Z,9.10
2018-05-14T16:33:59.520Z,10.13
2018-05-14T16:36:27.124Z,9.77
2018-05-14T16:38:54.763Z,9.13
2018-05-14T16:41:22.213Z,7.70
2018-05-14T16:43:49.667Z,6.90
2018-05-14T16:46:17.407Z,9.43
2018-05-14T16:48:44.885Z,7.57
2018-05-14T16:51:13.101Z,7.23
2018-05-14T16:53:41.303Z,7.70
2018-05-14T16:56:12.094Z,6.77
2018-05-14T16:58:39.521Z,6.90
2018-05-14T17:01:06.962Z,6.10
2018-05-14T17:03:34.408Z,5.67
2018-05-14T17:06:01.854Z,6.27
2018-05-14T17:08:30.112Z,6.63
2018-05-14T17:10:58.330Z,6.83
2018-05-14T17:13:25.887Z,5.13
2018-05-14T17:15:53.308Z,5.00
2018-05-14T17:18:21.531Z,5.23
2018-05-14T17:20:48.965Z,6.00
2018-05-14T17:23:16.414Z,6.10
2018-05-14T17:25:43.891Z,5.83
2018-05-14T17:28:11.320Z,8.43
2018-05-14T17:30:39.533Z,4.90
2018-05-14T17:33:06.977Z,6.27
2018-05-14T17:35:34.421Z,4.80
2018-05-14T17:38:01.902Z,4.07
2018-05-14T17:40:29.349Z,3.67
2018-05-14T17:42:56.817Z,3.83
2018-05-14T17:45:24.246Z,4.20
2018-05-14T17:47:51.697Z,5.17
2018-05-14T17:50:19.915Z,5.77
2018-05-14T17:52:48.141Z,4.63
2018-05-14T17:55:16.333Z,4.87
2018-05-14T17:57:43.781Z,4.83
2018-05-14T18:00:11.224Z,4.87
2018-05-14T18:02:39.441Z,3.47
2018-05-14T18:05:06.963Z,4.80
2018-05-14T18:07:34.592Z,4.27
2018-05-14T18:10:02.860Z,3.57
2018-05-14T18:12:30.301Z,3.30
2018-05-14T18:14:57.739Z,5.10
2018-05-14T18:17:25.192Z,4.13
2018-05-14T18:19:58.288Z,3.33
2018-05-14T18:22:25.753Z,3.40
2018-05-14T18:24:59.020Z,2.67
2018-05-14T18:27:31.323Z,3.80
2018-05-14T18:30:13.674Z,3.17
2018-05-14T18:32:56.775Z,4.40
2018-05-14T18:35:24.212Z,3.23
2018-05-14T18:37:51.661Z,3.50
2018-05-14T18:40:19.100Z,3.87
2018-05-14T18:42:46.588Z,2.93
2018-05-14T18:45:14.072Z,3.67
2018-05-14T18:47:42.281Z,3.50
2018-05-14T18:50:09.739Z,3.17
2018-05-14T18:52:37.180Z,3.93
2018-05-14T18:55:04.678Z,5.60
2018-05-14T18:57:32.128Z,2.87
2018-05-14T18:59:59.576Z,2.20
2018-05-14T19:02:27.005Z,2.80
2018-05-14T19:04:55.216Z,2.77
2018-05-14T19:07:22.659Z,2.00
2018-05-14T19:09:50.098Z,2.20
2018-05-14T19:12:17.530Z,2.00
2018-05-14T19:14:50.734Z,2.20
2018-05-14T19:17:24.758Z,2.30
2018-05-14T19:19:52.214Z,1.97
2018-05-14T19:22:25.355Z,2.47
2018-05-14T19:24:52.825Z,1.97
2018-05-14T19:27:20.408Z,1.50
2018-05-14T19:29:48.649Z,2.13
2018-05-14T19:32:16.085Z,1.50
2018-05-14T19:34:49.202Z,1.40
2018-05-14T19:37:16.661Z,1.57
2018-05-14T19:39:49.723Z,1.57
2018-05-14T19:42:17.923Z,1.60
2018-05-14T19:44:45.380Z,1.70
2018-05-14T19:47:12.846Z,1.50
2018-05-14T19:49:40.295Z,1.50
2018-05-14T19:52:07.717Z,1.30
2018-05-14T19:54:35.163Z,1.70
2018-05-14T19:57:02.592Z,2.30
2018-05-14T19:59:30.800Z,3.00
2018-05-14T20:01:58.238Z,3.13
2018-05-14T20:04:25.693Z,4.83
2018-05-14T20:06:53.221Z,6.17
2018-05-14T20:09:21.337Z,6.83
2018-05-14T20:11:48.802Z,5.57
2018-05-14T20:14:16.248Z,14.93
2018-05-14T20:16:43.681Z,11.37
2018-05-14T20:19:11.892Z,9.67
2018-05-14T20:21:39.336Z,11.40
2018-05-14T20:24:06.805Z,15.67
2018-05-14T20:26:34.301Z,12.67
2018-05-14T20:29:01.954Z,13.83
2018-05-14T20:31:29.551Z,20.17
2018-05-14T20:33:58.328Z,19.93
2018-05-14T20:36:26.564Z,17.70
2018-05-14T20:38:54.005Z,15.00
2018-05-14T20:41:21.452Z,21.33
2018-05-14T20:43:49.141Z,20.97
2018-05-14T20:46:17.658Z,19.37
2018-05-14T20:48:45.893Z,15.97
2018-05-14T20:51:14.117Z,17.20
2018-05-14T20:53:42.318Z,15.77
2018-05-14T20:56:09.773Z,17.30
2018-05-14T20:58:37.268Z,14.53
2018-05-14T21:01:04.718Z,14.57
2018-05-14T21:03:32.191Z,13.00
2018-05-14T21:06:00.532Z,12.23
2018-05-14T21:08:27.985Z,13.50
2018-05-14T21:10:55.437Z,15.03
2018-05-14T21:13:22.873Z,11.47
2018-05-14T21:15:50.320Z,16.23
2018-05-14T21:18:17.974Z,19.57
2018-05-14T21:20:45.472Z,14.37
2018-05-14T21:23:13.680Z,15.53
2018-05-14T21:25:41.128Z,19.53
2018-05-14T21:28:08.687Z,20.17
2018-05-14T21:30:36.149Z,15.37
2018-05-14T21:33:03.599Z,18.10
2018-05-14T21:35:31.051Z,17.43
2018-05-14T21:37:59.310Z,15.27
2018-05-14T21:40:26.765Z,18.43
2018-05-14T21:42:54.246Z,15.07
2018-05-14T21:45:21.922Z,16.23
2018-05-14T21:47:49.397Z,14.77
2018-05-14T21:50:17.672Z,16.23
2018-05-14T21:52:45.817Z,16.67
2018-05-14T21:55:14.033Z,11.83
2018-05-14T21:57:41.543Z,20.13
2018-05-14T22:00:08.993Z,11.77
2018-05-14T22:02:36.442Z,11.27
2018-05-14T22:05:03.889Z,12.43
2018-05-14T22:07:31.573Z,11.43
2018-05-14T22:09:59.181Z,14.03
2018-05-14T22:12:26.657Z,14.73
2018-05-14T22:14:54.097Z,19.27
2018-05-14T22:17:21.545Z,14.57
2018-05-14T22:19:48.980Z,27.67
2018-05-14T22:22:17.201Z,21.70
2018-05-14T22:24:44.867Z,25.93
2018-05-14T22:27:13.148Z,21.37
2018-05-14T22:29:40.590Z,21.13
2018-05-14T22:32:08.047Z,24.17
2018-05-14T22:34:36.275Z,18.47
2018-05-14T22:37:04.601Z,16.80
2018-05-14T22:39:32.102Z,20.93
2018-05-14T22:41:59.537Z,18.87
2018-05-14T22:44:27.746Z,24.83
2018-05-14T22:46:55.959Z,20.50
2018-05-14T22:49:23.410Z,33.00
2018-05-14T22:51:50.882Z,30.37
2018-05-14T22:54:30.080Z,30.67
2018-05-14T22:56:57.537Z,21.47
2018-05-14T22:59:25.773Z,27.73
2018-05-14T23:01:53.259Z,26.47
2018-05-14T23:04:21.479Z,19.77
2018-05-14T23:06:48.940Z,22.60
2018-05-14T23:09:16.379Z,22.47
2018-05-14T23:11:43.834Z,31.80
2018-05-14T23:14:11.338Z,30.43
2018-05-14T23:16:38.793Z,29.63
2018-05-14T23:19:07.074Z,35.63
2018-05-14T23:21:34.525Z,33.80
2018-05-14T23:24:01.958Z,27.73
2018-05-14T23:26:29.400Z,24.17
2018-05-14T23:28:56.847Z,22.10
2018-05-14T23:31:24.314Z,28.70
2018-05-14T23:33:51.768Z,27.40
2018-05-14T23:36:19.261Z,25.77
2018-05-14T23:38:46.731Z,31.23
2018-05-14T23:41:14.164Z,35.47
2018-05-14T23:43:41.616Z,26.87
2018-05-14T23:46:09.054Z,25.90
2018-05-14T23:48:36.500Z,27.53
2018-05-14T23:51:03.975Z,19.50
2018-05-14T23:53:31.418Z,38.10
2018-05-14T23:55:58.871Z,32.20
2018-05-14T23:58:26.345Z,34.40
